PHL weather

Philadelphia International Airport
Philadelphia, Pennsylvania, United States

Public forecast

Using degrees Fahrenheit for public forecast. Weather courtesy of forecast.io.

METAR (pilot weather report)

Retrieved 2019/04/21 10:54 UTC (50 minutes ago):

KPHL 211054Z 11003KT 10SM SCT065 SCT080 BKN270 12/11 A2991 RMK AO2 SLP129 T01220106

TAF (pilot weather forecast)

Retrieved 2019/04/21 06:22 UTC (5 hours ago):

TAF KPHL 210520Z 2106/2212 VRB05KT P6SM SCT070 BKN100 FM211200 20004KT P6SM FEW070 BKN100 FM211600 22006KT P6SM SCT200 FM220000 21005KT P6SM BKN100 FM220400 VRB03KT P6SM BKN100